createdAt,value
2023-01-09T00:00:59.466Z,100.00
2023-01-09T00:03:26.452Z,100.00
2023-01-09T00:05:53.746Z,100.00
2023-01-09T00:08:20.646Z,100.00
2023-01-09T00:10:50.169Z,100.00
2023-01-09T00:13:18.153Z,100.00
2023-01-09T00:15:45.596Z,100.00
2023-01-09T00:18:12.470Z,100.00
2023-01-09T00:20:39.301Z,100.00
2023-01-09T00:23:06.306Z,100.00
2023-01-09T00:25:33.635Z,100.00
2023-01-09T00:28:00.446Z,100.00
2023-01-09T00:30:27.798Z,100.00
2023-01-09T00:32:55.778Z,100.00
2023-01-09T00:35:25.881Z,100.00
2023-01-09T00:37:52.815Z,100.00
2023-01-09T00:40:20.795Z,100.00
2023-01-09T00:42:54.515Z,100.00
2023-01-09T00:45:29.073Z,100.00
2023-01-09T00:48:03.800Z,100.00
2023-01-09T00:50:33.422Z,100.00
2023-01-09T00:53:08.313Z,100.00
2023-01-09T00:55:37.373Z,100.00
2023-01-09T00:58:04.425Z,100.00
2023-01-09T01:00:31.543Z,100.00
2023-01-09T01:02:58.630Z,100.00
2023-01-09T01:05:43.949Z,100.00
2023-01-09T01:08:18.259Z,100.00
2023-01-09T01:10:46.772Z,100.00
2023-01-09T01:13:13.916Z,100.00
2023-01-09T01:15:43.183Z,100.00
2023-01-09T01:18:11.639Z,100.00
2023-01-09T01:20:42.343Z,100.00
2023-01-09T01:23:09.564Z,100.00
2023-01-09T01:25:41.715Z,100.00
2023-01-09T01:28:10.271Z,100.00
2023-01-09T01:30:42.206Z,100.00
2023-01-09T01:33:10.816Z,100.00
2023-01-09T01:35:37.972Z,100.00
2023-01-09T01:38:05.068Z,100.00
2023-01-09T01:40:32.287Z,100.00
2023-01-09T01:42:59.209Z,100.00
2023-01-09T01:45:30.204Z,100.00
2023-01-09T01:48:04.733Z,100.00
2023-01-09T01:51:02.418Z,100.00
2023-01-09T01:53:58.813Z,100.00
2023-01-09T01:56:28.395Z,100.00
2023-01-09T01:59:16.388Z,100.00
2023-01-09T02:01:47.412Z,100.00
2023-01-09T02:04:14.692Z,100.00
2023-01-09T02:06:42.621Z,100.00
2023-01-09T02:09:13.262Z,100.00
2023-01-09T02:11:46.150Z,100.00
2023-01-09T02:14:13.803Z,100.00
2023-01-09T02:17:07.662Z,100.00
2023-01-09T02:20:18.697Z,100.00
2023-01-09T02:23:12.167Z,100.00
2023-01-09T02:25:44.711Z,100.00
2023-01-09T02:28:23.293Z,100.00
2023-01-09T02:31:42.346Z,100.00
2023-01-09T02:34:25.080Z,100.00
2023-01-09T02:37:32.448Z,100.00
2023-01-09T02:40:15.518Z,100.00
2023-01-09T02:42:44.305Z,100.00
2023-01-09T02:45:11.099Z,100.00
2023-01-09T02:47:45.217Z,100.00
2023-01-09T02:50:42.690Z,100.00
2023-01-09T02:53:32.705Z,100.00
2023-01-09T02:56:58.179Z,100.00
2023-01-09T02:59:39.897Z,100.00
2023-01-09T03:02:36.406Z,100.00
2023-01-09T03:05:18.019Z,100.00
2023-01-09T03:08:03.501Z,100.00
2023-01-09T03:10:40.250Z,100.00
2023-01-09T03:13:12.275Z,100.00
2023-01-09T03:15:41.826Z,100.00
2023-01-09T03:18:11.865Z,100.00
2023-01-09T03:20:39.692Z,100.00
2023-01-09T03:23:08.376Z,100.00
2023-01-09T03:25:35.303Z,100.00
2023-01-09T03:28:18.018Z,100.00
2023-01-09T03:30:44.956Z,98.10
2023-01-09T03:33:11.911Z,97.64
2023-01-09T03:35:38.866Z,95.82
2023-01-09T03:38:07.277Z,94.59
2023-01-09T03:40:34.879Z,92.81
2023-01-09T03:43:01.763Z,92.67
2023-01-09T03:45:28.609Z,92.67
2023-01-09T03:47:58.403Z,92.65
2023-01-09T03:50:25.289Z,92.28
2023-01-09T03:52:52.358Z,91.89
2023-01-09T03:55:19.216Z,92.37
2023-01-09T03:57:46.039Z,92.49
2023-01-09T04:00:13.834Z,91.80
2023-01-09T04:02:40.685Z,91.61
2023-01-09T04:05:08.297Z,90.45
2023-01-09T04:07:35.297Z,89.53
2023-01-09T04:10:02.164Z,90.09
2023-01-09T04:12:28.996Z,89.09
2023-01-09T04:14:55.835Z,89.39
2023-01-09T04:17:22.710Z,88.51
2023-01-09T04:19:50.719Z,89.29
2023-01-09T04:22:17.603Z,87.11
2023-01-09T04:24:44.400Z,86.80
2023-01-09T04:27:12.257Z,87.26
2023-01-09T04:29:39.178Z,86.39
2023-01-09T04:32:06.155Z,86.73
2023-01-09T04:34:33.067Z,86.84
2023-01-09T04:36:59.893Z,87.02
2023-01-09T04:39:26.725Z,86.69
2023-01-09T04:41:53.579Z,86.51
2023-01-09T04:44:28.736Z,86.60
2023-01-09T04:46:59.110Z,86.10
2023-01-09T04:49:26.365Z,85.03
2023-01-09T04:51:53.262Z,84.93
2023-01-09T04:54:20.696Z,84.04
2023-01-09T04:56:47.810Z,84.16
2023-01-09T04:59:15.028Z,83.79
2023-01-09T05:01:42.026Z,83.94
2023-01-09T05:04:09.267Z,84.25
2023-01-09T05:06:36.180Z,83.64
2023-01-09T05:09:03.438Z,83.62
2023-01-09T05:11:30.346Z,83.00
2023-01-09T05:13:57.340Z,82.42
2023-01-09T05:16:24.345Z,81.34
2023-01-09T05:18:56.413Z,80.54
2023-01-09T05:21:24.588Z,79.76
2023-01-09T05:23:51.600Z,80.49
2023-01-09T05:26:23.818Z,80.25
2023-01-09T05:28:52.410Z,80.01
2023-01-09T05:31:20.502Z,80.17
2023-01-09T05:33:47.379Z,80.51
2023-01-09T05:36:14.755Z,80.05
2023-01-09T05:38:41.616Z,79.69
2023-01-09T05:41:08.946Z,80.47
2023-01-09T05:43:35.846Z,81.42
2023-01-09T05:46:03.066Z,82.05
2023-01-09T05:48:29.950Z,82.84
2023-01-09T05:50:58.870Z,83.83
2023-01-09T05:53:25.716Z,84.50
2023-01-09T05:55:52.531Z,83.51
2023-01-09T05:58:19.405Z,82.10
2023-01-09T06:00:46.296Z,81.92
2023-01-09T06:03:13.186Z,80.16
2023-01-09T06:05:40.370Z,79.33
2023-01-09T06:08:07.286Z,78.88
2023-01-09T06:10:34.114Z,79.09
2023-01-09T06:13:00.944Z,79.15
2023-01-09T06:15:27.914Z,78.86
2023-01-09T06:17:54.899Z,78.94
2023-01-09T06:20:21.781Z,79.20
2023-01-09T06:22:51.891Z,79.27
2023-01-09T06:25:18.980Z,79.89
2023-01-09T06:27:45.902Z,79.81
2023-01-09T06:30:13.142Z,80.85
2023-01-09T06:32:40.047Z,79.76
2023-01-09T06:35:07.272Z,79.86
2023-01-09T06:37:34.231Z,80.34
2023-01-09T06:40:01.043Z,80.36
2023-01-09T06:42:27.894Z,80.10
2023-01-09T06:44:54.772Z,80.51
2023-01-09T06:47:21.755Z,80.95
2023-01-09T06:49:48.569Z,80.39
2023-01-09T06:52:15.556Z,81.29
2023-01-09T06:54:42.356Z,81.20
2023-01-09T06:57:09.395Z,81.05
2023-01-09T06:59:36.964Z,81.63
2023-01-09T07:02:03.945Z,82.25
2023-01-09T07:04:30.805Z,82.44
2023-01-09T07:06:57.669Z,82.56
2023-01-09T07:09:24.540Z,83.27
2023-01-09T07:11:51.376Z,84.20
2023-01-09T07:14:18.211Z,83.42
2023-01-09T07:16:45.043Z,83.62
2023-01-09T07:19:11.975Z,83.69
2023-01-09T07:21:38.814Z,83.29
2023-01-09T07:24:05.953Z,83.32
2023-01-09T07:26:32.778Z,83.29
2023-01-09T07:28:59.633Z,83.63
2023-01-09T07:31:26.689Z,83.46
2023-01-09T07:33:53.683Z,83.61
2023-01-09T07:36:20.690Z,83.25
2023-01-09T07:38:47.521Z,83.27
2023-01-09T07:41:14.484Z,83.71
2023-01-09T07:43:41.303Z,84.35
2023-01-09T07:46:08.266Z,85.07
2023-01-09T07:48:35.169Z,84.94
2023-01-09T07:51:02.379Z,85.19
2023-01-09T07:53:29.392Z,85.33
2023-01-09T07:55:56.195Z,85.25
2023-01-09T07:58:23.110Z,85.57
2023-01-09T08:00:51.231Z,85.57
2023-01-09T08:03:18.145Z,86.03
2023-01-09T08:05:45.943Z,85.73
2023-01-09T08:08:14.856Z,85.74
2023-01-09T08:10:41.771Z,86.27
2023-01-09T08:13:08.720Z,86.04
2023-01-09T08:15:35.595Z,86.97
2023-01-09T08:18:02.517Z,88.00
2023-01-09T08:20:29.492Z,88.36
2023-01-09T08:22:56.823Z,88.27
2023-01-09T08:25:23.856Z,87.59
2023-01-09T08:27:50.934Z,87.87
2023-01-09T08:30:18.779Z,87.66
2023-01-09T08:32:51.660Z,88.20
2023-01-09T08:35:19.386Z,89.35
2023-01-09T08:37:48.154Z,89.11
2023-01-09T08:40:16.972Z,88.93
2023-01-09T08:43:03.350Z,88.71
2023-01-09T08:45:50.429Z,89.81
2023-01-09T08:48:17.322Z,89.32
2023-01-09T08:50:44.664Z,89.88
2023-01-09T08:53:12.121Z,89.54
2023-01-09T08:55:39.381Z,88.49
2023-01-09T08:58:06.277Z,87.56
2023-01-09T09:00:33.160Z,85.76
2023-01-09T09:03:01.669Z,85.06
2023-01-09T09:05:30.919Z,84.25
2023-01-09T09:07:58.908Z,83.85
2023-01-09T09:10:29.097Z,83.22
2023-01-09T09:12:58.587Z,82.67
2023-01-09T09:15:27.525Z,81.54
2023-01-09T09:17:56.825Z,81.94
2023-01-09T09:20:27.523Z,81.38
2023-01-09T09:22:54.542Z,80.20
2023-01-09T09:25:22.181Z,80.08
2023-01-09T09:27:49.520Z,79.38
2023-01-09T09:30:18.986Z,79.78
2023-01-09T09:32:46.605Z,80.14
2023-01-09T09:35:13.517Z,79.99
2023-01-09T09:37:41.948Z,79.43
2023-01-09T09:40:20.421Z,80.01
2023-01-09T09:43:43.284Z,78.69
2023-01-09T09:46:41.780Z,77.97
2023-01-09T09:49:50.447Z,77.74
2023-01-09T09:52:29.779Z,77.78
2023-01-09T09:55:01.324Z,77.43
2023-01-09T09:57:36.491Z,78.12
2023-01-09T10:00:06.116Z,78.05
2023-01-09T10:02:51.552Z,76.92
2023-01-09T10:05:34.567Z,77.44
2023-01-09T10:08:16.271Z,78.20
2023-01-09T10:10:56.247Z,79.00
2023-01-09T10:13:43.801Z,79.84
2023-01-09T10:16:21.215Z,81.11
2023-01-09T10:18:59.926Z,81.69
2023-01-09T10:21:40.584Z,81.84
2023-01-09T10:24:28.944Z,82.82
2023-01-09T10:26:58.290Z,82.34
2023-01-09T10:30:19.928Z,82.45
2023-01-09T10:32:49.441Z,82.04
2023-01-09T10:36:12.507Z,82.03
2023-01-09T10:38:45.255Z,82.38
2023-01-09T10:41:24.999Z,81.45
2023-01-09T10:44:06.217Z,80.05
2023-01-09T10:46:43.888Z,79.12
2023-01-09T10:49:17.844Z,80.46
2023-01-09T10:51:57.189Z,80.76
2023-01-09T10:54:24.738Z,81.39
2023-01-09T10:57:06.467Z,81.13
2023-01-09T10:59:33.362Z,81.41
2023-01-09T11:02:01.549Z,81.49
2023-01-09T11:04:36.326Z,81.12
2023-01-09T11:07:19.897Z,80.18
2023-01-09T11:09:58.883Z,80.43
2023-01-09T11:12:34.082Z,80.64
2023-01-09T11:15:16.345Z,80.52
2023-01-09T11:17:43.869Z,80.86
2023-01-09T11:20:27.134Z,84.02
2023-01-09T11:22:57.976Z,85.39
2023-01-09T11:25:28.989Z,87.25
2023-01-09T11:28:01.723Z,88.12
2023-01-09T11:30:36.221Z,86.55
2023-01-09T11:33:15.922Z,86.23
2023-01-09T11:36:07.884Z,84.75
2023-01-09T11:38:54.752Z,83.36
2023-01-09T11:41:26.407Z,85.03
2023-01-09T11:43:57.495Z,86.02
2023-01-09T11:46:43.936Z,87.93
2023-01-09T11:49:19.700Z,88.33
2023-01-09T11:51:46.693Z,88.28
2023-01-09T11:54:26.241Z,89.07
2023-01-09T11:56:53.593Z,90.80
2023-01-09T11:59:25.728Z,90.41
2023-01-09T12:02:16.453Z,91.14
2023-01-09T12:04:56.910Z,90.68
2023-01-09T12:07:43.205Z,91.27
2023-01-09T12:10:53.340Z,91.70
2023-01-09T12:13:59.606Z,92.96
2023-01-09T12:16:43.243Z,92.29
2023-01-09T12:19:42.660Z,92.23
2023-01-09T12:22:27.379Z,92.32
2023-01-09T12:25:18.784Z,92.43
2023-01-09T12:28:28.130Z,93.24
2023-01-09T12:31:35.974Z,93.37
2023-01-09T12:34:38.256Z,93.42
2023-01-09T12:37:34.195Z,93.95
2023-01-09T12:40:23.396Z,94.28
2023-01-09T12:43:26.943Z,94.30
2023-01-09T12:46:18.728Z,94.47
2023-01-09T12:49:24.242Z,92.70
2023-01-09T12:52:20.546Z,92.84
2023-01-09T12:54:54.388Z,93.03
2023-01-09T12:57:56.075Z,91.96
2023-01-09T13:00:35.586Z,92.03
2023-01-09T13:03:36.940Z,90.21
2023-01-09T13:06:10.893Z,88.88
2023-01-09T13:08:42.540Z,89.56
2023-01-09T13:11:22.144Z,89.94
2023-01-09T13:14:11.449Z,88.10
2023-01-09T13:16:43.791Z,86.05
2023-01-09T13:19:27.810Z,85.89
2023-01-09T13:21:56.174Z,85.14
2023-01-09T13:24:48.620Z,83.35
2023-01-09T13:27:23.139Z,82.18
2023-01-09T13:30:26.367Z,82.66
2023-01-09T13:33:17.213Z,81.49
2023-01-09T13:35:53.933Z,79.30
2023-01-09T13:38:27.383Z,78.70
2023-01-09T13:41:32.937Z,78.10
2023-01-09T13:44:07.730Z,76.97
2023-01-09T13:46:43.265Z,77.33
2023-01-09T13:49:52.917Z,76.93
2023-01-09T13:52:41.287Z,77.66
2023-01-09T13:55:15.007Z,76.45
2023-01-09T13:58:08.532Z,76.54
2023-01-09T14:00:35.203Z,75.85
2023-01-09T14:03:32.845Z,76.92
2023-01-09T14:05:59.736Z,77.63
2023-01-09T14:08:32.445Z,77.91
2023-01-09T14:11:02.226Z,78.30
2023-01-09T14:13:38.319Z,79.28
2023-01-09T14:16:09.265Z,80.85
2023-01-09T14:18:40.307Z,79.85
2023-01-09T14:21:11.207Z,80.14
2023-01-09T14:23:54.566Z,78.83
2023-01-09T14:26:56.673Z,77.91
2023-01-09T14:29:45.334Z,78.16
2023-01-09T14:32:26.030Z,76.82
2023-01-09T14:35:08.153Z,77.92
2023-01-09T14:37:37.941Z,77.59
2023-01-09T14:40:29.264Z,78.93
2023-01-09T14:43:04.220Z,78.11
2023-01-09T14:45:33.446Z,78.80
2023-01-09T14:48:06.359Z,78.28
2023-01-09T14:50:36.788Z,79.33
2023-01-09T14:53:13.263Z,77.56
2023-01-09T14:55:57.584Z,78.40
2023-01-09T14:58:34.255Z,78.28
2023-01-09T15:01:18.947Z,78.56
2023-01-09T15:03:59.418Z,78.30
2023-01-09T15:06:31.171Z,78.76
2023-01-09T15:09:22.265Z,79.64
2023-01-09T15:11:49.683Z,79.63
2023-01-09T15:14:41.546Z,79.14
2023-01-09T15:17:23.303Z,79.04
2023-01-09T15:19:50.509Z,78.29
2023-01-09T15:22:30.645Z,78.59
2023-01-09T15:24:59.056Z,78.48
2023-01-09T15:27:26.495Z,78.78
2023-01-09T15:29:53.471Z,78.66
2023-01-09T15:32:28.655Z,78.83
2023-01-09T15:34:57.320Z,79.23
2023-01-09T15:37:38.933Z,79.44
2023-01-09T15:40:21.853Z,80.76
2023-01-09T15:42:58.016Z,82.51
2023-01-09T15:45:40.432Z,83.03
2023-01-09T15:48:23.392Z,85.19
2023-01-09T15:50:57.939Z,85.70
2023-01-09T15:53:27.752Z,85.50
2023-01-09T15:56:23.911Z,83.98
2023-01-09T15:58:52.812Z,83.81
2023-01-09T16:01:40.211Z,83.36
2023-01-09T16:04:16.776Z,82.95
2023-01-09T16:06:50.519Z,82.63
2023-01-09T16:09:27.815Z,81.95
2023-01-09T16:11:58.892Z,82.31
2023-01-09T16:14:34.560Z,82.56
2023-01-09T16:17:12.719Z,82.41
2023-01-09T16:19:58.333Z,82.56
2023-01-09T16:22:30.319Z,82.53
2023-01-09T16:25:20.198Z,82.77
2023-01-09T16:28:30.631Z,82.49
2023-01-09T16:31:08.257Z,82.81
2023-01-09T16:33:35.346Z,82.01
2023-01-09T16:36:04.893Z,81.97
2023-01-09T16:38:31.701Z,81.87
2023-01-09T16:41:26.167Z,81.61
2023-01-09T16:43:53.171Z,81.58
2023-01-09T16:46:21.270Z,82.29
2023-01-09T16:48:48.643Z,80.51
2023-01-09T16:51:20.699Z,80.26
2023-01-09T16:53:48.894Z,80.78
2023-01-09T16:56:22.048Z,80.42
2023-01-09T16:58:49.371Z,80.52
2023-01-09T17:01:16.669Z,81.14
2023-01-09T17:03:44.237Z,79.66
2023-01-09T17:06:29.384Z,80.38
2023-01-09T17:08:56.972Z,79.97
2023-01-09T17:11:32.888Z,80.56
2023-01-09T17:14:01.226Z,80.56
2023-01-09T17:16:29.565Z,80.91
2023-01-09T17:18:56.598Z,81.06
2023-01-09T17:21:26.828Z,80.80
2023-01-09T17:24:12.208Z,81.39
2023-01-09T17:27:01.567Z,81.78
2023-01-09T17:29:30.008Z,81.51
2023-01-09T17:31:58.011Z,82.55
2023-01-09T17:34:24.876Z,81.91
2023-01-09T17:36:52.728Z,82.89
2023-01-09T17:39:19.624Z,82.66
2023-01-09T17:41:46.437Z,83.24
2023-01-09T17:44:13.325Z,83.87
2023-01-09T17:46:43.465Z,83.57
2023-01-09T17:49:21.260Z,83.10
2023-01-09T17:51:48.600Z,82.27
2023-01-09T17:54:15.719Z,82.00
2023-01-09T17:56:50.729Z,82.02
2023-01-09T17:59:18.159Z,82.97
2023-01-09T18:01:45.569Z,81.95
2023-01-09T18:04:12.834Z,82.17
2023-01-09T18:06:39.710Z,82.03
2023-01-09T18:09:07.634Z,82.45
2023-01-09T18:11:34.951Z,82.40
2023-01-09T18:14:02.050Z,82.74
2023-01-09T18:16:29.047Z,83.51
2023-01-09T18:18:58.889Z,82.43
2023-01-09T18:21:28.088Z,82.60
2023-01-09T18:23:56.218Z,83.18
2023-01-09T18:26:23.162Z,83.75
2023-01-09T18:28:59.091Z,84.52
2023-01-09T18:31:28.095Z,83.38
2023-01-09T18:33:58.179Z,83.75
2023-01-09T18:36:30.611Z,84.23
2023-01-09T18:39:03.677Z,84.56
2023-01-09T18:41:31.491Z,83.78
2023-01-09T18:44:00.425Z,84.58
2023-01-09T18:46:31.801Z,83.38
2023-01-09T18:49:01.705Z,83.34
2023-01-09T18:51:29.587Z,82.88
2023-01-09T18:53:57.038Z,82.81
2023-01-09T18:56:24.798Z,82.71
2023-01-09T18:58:59.401Z,83.43
2023-01-09T19:01:28.895Z,82.92
2023-01-09T19:03:57.868Z,83.85
2023-01-09T19:06:25.578Z,83.55
2023-01-09T19:08:52.473Z,83.54
2023-01-09T19:11:19.339Z,83.97
2023-01-09T19:13:46.217Z,83.23
2023-01-09T19:16:13.898Z,83.65
2023-01-09T19:18:42.073Z,82.40
2023-01-09T19:21:15.203Z,82.92
2023-01-09T19:23:43.909Z,83.50
2023-01-09T19:26:21.493Z,82.78
2023-01-09T19:28:48.447Z,82.68
2023-01-09T19:31:16.088Z,83.16
2023-01-09T19:33:44.569Z,83.43
2023-01-09T19:36:11.750Z,83.29
2023-01-09T19:38:38.944Z,82.81
2023-01-09T19:41:14.187Z,82.65
2023-01-09T19:43:46.027Z,82.56
2023-01-09T19:46:15.750Z,83.20
2023-01-09T19:48:42.852Z,82.17
2023-01-09T19:51:11.238Z,82.47
2023-01-09T19:53:38.580Z,81.69
2023-01-09T19:56:12.508Z,81.79
2023-01-09T19:58:40.736Z,82.48
2023-01-09T20:01:13.935Z,82.83
2023-01-09T20:03:47.135Z,83.02
2023-01-09T20:06:18.999Z,83.01
2023-01-09T20:08:47.697Z,82.27
2023-01-09T20:11:15.623Z,82.28
2023-01-09T20:13:43.239Z,82.16
2023-01-09T20:16:22.586Z,83.04
2023-01-09T20:18:49.670Z,82.98
2023-01-09T20:23:51.217Z,82.56
2023-01-09T20:26:18.983Z,82.60
2023-01-09T20:28:46.867Z,82.13
2023-01-09T20:31:16.679Z,82.15
2023-01-09T20:33:44.479Z,82.12
2023-01-09T20:36:11.416Z,82.56
2023-01-09T20:38:39.838Z,82.36
2023-01-09T20:41:22.368Z,82.41
2023-01-09T20:44:04.823Z,82.18
2023-01-09T20:46:37.840Z,82.43
2023-01-09T20:49:07.461Z,82.22
2023-01-09T20:51:42.627Z,81.96
2023-01-09T20:54:09.952Z,81.96
2023-01-09T20:56:36.795Z,81.67
2023-01-09T20:59:06.144Z,82.19
2023-01-09T21:01:34.468Z,82.08
2023-01-09T21:04:02.988Z,82.32
2023-01-09T21:06:29.923Z,83.68
2023-01-09T21:08:56.943Z,83.40
2023-01-09T21:11:24.155Z,83.19
2023-01-09T21:13:51.825Z,82.67
2023-01-09T21:16:23.989Z,82.88
2023-01-09T21:18:51.898Z,82.23
2023-01-09T21:21:24.443Z,81.53
2023-01-09T21:23:57.950Z,82.00
2023-01-09T21:26:28.943Z,82.70
2023-01-09T21:28:58.423Z,82.18
2023-01-09T21:31:34.023Z,81.64
2023-01-09T21:34:07.243Z,82.03
2023-01-09T21:36:35.308Z,82.63
2023-01-09T21:39:02.518Z,82.67
2023-01-09T21:41:48.117Z,82.56
2023-01-09T21:44:33.330Z,82.54
2023-01-09T21:47:02.585Z,82.79
2023-01-09T21:49:34.682Z,83.08
2023-01-09T21:52:04.014Z,83.43
2023-01-09T21:54:31.589Z,83.18
2023-01-09T21:56:59.246Z,83.72
2023-01-09T21:59:26.394Z,83.38
2023-01-09T22:01:53.304Z,82.86
2023-01-09T22:04:25.555Z,83.34
2023-01-09T22:06:52.443Z,83.44
2023-01-09T22:09:19.331Z,82.58
2023-01-09T22:11:46.203Z,83.46
2023-01-09T22:14:16.297Z,82.70
2023-01-09T22:16:44.994Z,82.25
2023-01-09T22:19:18.945Z,82.73
2023-01-09T22:21:46.505Z,82.23
2023-01-09T22:24:16.875Z,81.73
2023-01-09T22:26:44.650Z,82.20
2023-01-09T22:29:11.492Z,82.68
2023-01-09T22:31:39.672Z,82.25
2023-01-09T22:34:07.221Z,82.34
2023-01-09T22:36:34.120Z,81.83
2023-01-09T22:39:01.295Z,82.11
2023-01-09T22:41:29.782Z,82.02
2023-01-09T22:43:56.806Z,82.47
2023-01-09T22:46:23.841Z,82.96
2023-01-09T22:48:50.746Z,82.77
2023-01-09T22:51:20.379Z,83.02
2023-01-09T22:53:47.603Z,83.55
2023-01-09T22:56:21.441Z,83.54
2023-01-09T22:58:53.396Z,83.42
2023-01-09T23:01:21.324Z,82.97
2023-01-09T23:03:48.865Z,83.58
2023-01-09T23:06:18.798Z,84.21
2023-01-09T23:08:46.378Z,84.05
2023-01-09T23:11:40.283Z,84.21
2023-01-09T23:14:07.125Z,84.33
2023-01-09T23:16:34.004Z,83.98
2023-01-09T23:19:00.977Z,84.48
2023-01-09T23:21:27.859Z,83.76
2023-01-09T23:23:54.701Z,83.98
2023-01-09T23:26:21.605Z,84.72
2023-01-09T23:28:48.496Z,84.92
2023-01-09T23:31:15.579Z,85.03
2023-01-09T23:33:42.532Z,85.24
2023-01-09T23:36:09.635Z,85.33
2023-01-09T23:38:36.500Z,86.40
2023-01-09T23:41:03.336Z,85.86
2023-01-09T23:43:30.144Z,86.70
2023-01-09T23:45:56.967Z,86.19
2023-01-09T23:48:26.166Z,86.64
2023-01-09T23:50:56.530Z,86.90
2023-01-09T23:53:23.694Z,86.45
2023-01-09T23:55:56.746Z,85.90
2023-01-09T23:58:24.211Z,86.61
